createdAt,value
2018-06-04T00:00:42.313Z,57.66
2018-06-04T00:01:42.308Z,57.76
2018-06-04T00:02:42.304Z,57.76
2018-06-04T00:03:42.297Z,57.66
2018-06-04T00:04:42.293Z,57.86
2018-06-04T00:05:42.288Z,57.86
2018-06-04T00:06:42.284Z,57.76
2018-06-04T00:07:42.278Z,57.76
2018-06-04T00:08:42.301Z,57.76
2018-06-04T00:09:42.270Z,57.56
2018-06-04T00:10:42.261Z,57.66
2018-06-04T00:11:42.259Z,57.86
2018-06-04T00:12:42.255Z,57.95
2018-06-04T00:13:42.247Z,57.76
2018-06-04T00:14:42.246Z,57.86
2018-06-04T00:15:42.237Z,57.66
2018-06-04T00:16:42.234Z,57.56
2018-06-04T00:17:42.228Z,57.76
2018-06-04T00:18:42.223Z,57.95
2018-06-04T00:19:42.218Z,57.86
2018-06-04T00:20:42.213Z,57.18
2018-06-04T00:21:42.207Z,57.18
2018-06-04T00:22:42.207Z,57.76
2018-06-04T00:23:42.199Z,57.56
2018-06-04T00:24:42.193Z,57.46
2018-06-04T00:25:42.186Z,57.56
2018-06-04T00:26:42.182Z,57.56
2018-06-04T00:27:42.176Z,57.18
2018-06-04T00:28:42.173Z,57.18
2018-06-04T00:29:42.167Z,57.56
2018-06-04T00:30:42.163Z,57.18
2018-06-04T00:31:42.160Z,57.18
2018-06-04T00:32:42.153Z,57.28
2018-06-04T00:33:42.147Z,57.56
2018-06-04T00:34:42.142Z,57.18
2018-06-04T00:35:42.137Z,57.46
2018-06-04T00:36:42.136Z,57.28
2018-06-04T00:37:42.127Z,57.37
2018-06-04T00:38:42.123Z,57.28
2018-06-04T00:39:42.119Z,57.28
2018-06-04T00:40:42.114Z,57.28
2018-06-04T00:41:42.107Z,57.37
2018-06-04T00:42:42.103Z,57.56
2018-06-04T00:43:42.098Z,57.46
2018-06-04T00:44:42.094Z,57.18
2018-06-04T00:45:42.092Z,57.18
2018-06-04T00:46:42.082Z,57.37
2018-06-04T00:47:42.077Z,57.18
2018-06-04T00:48:42.071Z,57.18
2018-06-04T00:49:42.067Z,57.08
2018-06-04T00:50:42.064Z,56.98
2018-06-04T00:51:42.057Z,57.28
2018-06-04T00:52:42.055Z,56.88
2018-06-04T00:53:42.047Z,56.98
2018-06-04T00:54:42.046Z,56.79
2018-06-04T00:55:42.038Z,56.88
2018-06-04T00:56:42.033Z,56.79
2018-06-04T00:57:42.028Z,56.88
2018-06-04T00:58:42.023Z,56.79
2018-06-04T00:59:42.085Z,56.79
2018-06-04T01:00:42.013Z,56.98
2018-06-04T01:01:42.007Z,56.79
2018-06-04T01:02:42.003Z,56.79
2018-06-04T01:03:41.999Z,56.79
2018-06-04T01:04:41.996Z,57.18
2018-06-04T01:05:41.989Z,56.88
2018-06-04T01:06:41.985Z,56.98
2018-06-04T01:07:41.979Z,56.79
2018-06-04T01:08:41.977Z,57.08
2018-06-04T01:09:41.970Z,57.08
2018-06-04T01:10:41.964Z,56.98
2018-06-04T01:11:41.962Z,57.18
2018-06-04T01:12:41.956Z,56.79
2018-06-04T01:13:41.952Z,56.98
2018-06-04T01:14:41.945Z,56.79
2018-06-04T01:15:41.945Z,56.79
2018-06-04T01:16:41.935Z,56.88
2018-06-04T01:17:41.933Z,56.88
2018-06-04T01:18:41.924Z,56.79
2018-06-04T01:19:41.920Z,56.98
2018-06-04T01:20:41.917Z,56.98
2018-06-04T01:21:41.906Z,56.88
2018-06-04T01:22:41.905Z,56.79
2018-06-04T01:23:41.901Z,56.98
2018-06-04T01:24:41.896Z,56.70
2018-06-04T01:25:41.891Z,57.28
2018-06-04T01:26:41.885Z,56.98
2018-06-04T01:27:41.883Z,56.98
2018-06-04T01:28:41.880Z,56.98
2018-06-04T01:29:41.870Z,56.88
2018-06-04T01:30:41.866Z,56.98
2018-06-04T01:31:41.861Z,57.08
2018-06-04T01:32:41.859Z,56.98
2018-06-04T01:33:41.851Z,57.28
2018-06-04T01:34:41.847Z,57.28
2018-06-04T01:35:41.843Z,57.37
2018-06-04T01:36:41.837Z,57.37
2018-06-04T01:37:41.830Z,57.56
2018-06-04T01:38:41.828Z,57.46
2018-06-04T01:39:41.821Z,57.18
2018-06-04T01:40:41.817Z,57.28
2018-06-04T01:41:41.812Z,57.28
2018-06-04T01:42:41.809Z,57.28
2018-06-04T01:43:41.855Z,57.56
2018-06-04T01:44:41.799Z,57.56
2018-06-04T01:45:41.793Z,57.56
2018-06-04T01:46:41.788Z,57.28
2018-06-04T01:47:41.782Z,57.37
2018-06-04T01:48:41.779Z,57.37
2018-06-04T01:49:41.774Z,57.08
2018-06-04T01:50:41.770Z,57.46
2018-06-04T01:51:41.763Z,57.28
2018-06-04T01:52:41.759Z,57.28
2018-06-04T01:53:41.752Z,57.44
2018-06-04T01:54:41.749Z,57.18
2018-06-04T01:55:41.744Z,57.37
2018-06-04T01:56:41.740Z,57.18
2018-06-04T01:57:41.733Z,57.05
2018-06-04T01:58:41.727Z,57.18
2018-06-04T01:59:41.729Z,56.98
2018-06-04T02:00:41.717Z,57.08
2018-06-04T02:01:41.715Z,56.95
2018-06-04T02:02:41.711Z,56.79
2018-06-04T02:03:41.706Z,57.08
2018-06-04T02:04:41.702Z,57.15
2018-06-04T02:05:41.695Z,56.76
2018-06-04T02:06:41.691Z,56.98
2018-06-04T02:07:41.684Z,56.76
2018-06-04T02:08:41.680Z,56.95
2018-06-04T02:09:41.674Z,56.95
2018-06-04T02:10:41.671Z,56.95
2018-06-04T02:11:41.664Z,56.95
2018-06-04T02:12:41.666Z,56.95
2018-06-04T02:13:41.654Z,56.86
2018-06-04T02:14:41.651Z,56.76
2018-06-04T02:15:41.645Z,57.15
2018-06-04T02:16:41.639Z,56.95
2018-06-04T02:17:41.635Z,56.95
2018-06-04T02:18:41.631Z,57.15
2018-06-04T02:19:41.626Z,57.05
2018-06-04T02:20:41.621Z,56.76
2018-06-04T02:21:41.615Z,57.05
2018-06-04T02:22:41.609Z,57.05
2018-06-04T02:23:41.607Z,57.15
2018-06-04T02:24:41.603Z,56.95
2018-06-04T02:25:41.599Z,56.86
2018-06-04T02:26:41.591Z,56.86
2018-06-04T02:27:41.589Z,56.86
2018-06-04T02:28:41.582Z,57.15
2018-06-04T02:29:41.575Z,57.15
2018-06-04T02:30:41.571Z,57.15
2018-06-04T02:31:41.568Z,56.95
2018-06-04T02:32:41.562Z,56.95
2018-06-04T02:33:41.557Z,57.05
2018-06-04T02:34:41.550Z,56.95
2018-06-04T02:35:41.548Z,56.95
2018-06-04T02:36:41.595Z,57.05
2018-06-04T02:37:41.538Z,56.95
2018-06-04T02:38:41.532Z,56.95
2018-06-04T02:39:41.528Z,57.05
2018-06-04T02:40:41.523Z,56.95
2018-06-04T02:41:41.574Z,57.15
2018-06-04T02:42:41.513Z,57.05
2018-06-04T02:43:41.508Z,57.05
2018-06-04T02:44:41.502Z,57.05
2018-06-04T02:45:41.498Z,57.05
2018-06-04T02:46:41.491Z,56.95
2018-06-04T02:47:41.488Z,56.95
2018-06-04T02:48:41.485Z,57.05
2018-06-04T02:49:41.480Z,57.15
2018-06-04T02:50:41.478Z,56.95
2018-06-04T02:51:41.471Z,57.15
2018-06-04T02:52:41.464Z,56.95
2018-06-04T02:53:41.457Z,56.95
2018-06-04T02:54:41.452Z,56.95
2018-06-04T02:55:41.450Z,57.05
2018-06-04T02:56:41.444Z,56.95
2018-06-04T02:57:41.439Z,56.95
2018-06-04T02:58:41.432Z,56.98
2018-06-04T02:59:41.430Z,56.76
2018-06-04T03:00:41.423Z,56.95
2018-06-04T03:01:41.418Z,56.95
2018-06-04T03:02:41.415Z,56.95
2018-06-04T03:03:41.408Z,56.95
2018-06-04T03:04:41.404Z,56.95
2018-06-04T03:05:41.399Z,56.95
2018-06-04T03:06:41.394Z,57.15
2018-06-04T03:07:41.389Z,56.95
2018-06-04T03:08:41.384Z,56.95
2018-06-04T03:09:41.381Z,57.15
2018-06-04T03:10:41.375Z,57.24
2018-06-04T03:11:41.369Z,57.05
2018-06-04T03:12:41.365Z,57.24
2018-06-04T03:13:41.358Z,57.24
2018-06-04T03:14:41.360Z,57.54
2018-06-04T03:15:41.351Z,57.34
2018-06-04T03:16:41.345Z,57.24
2018-06-04T03:17:41.338Z,57.05
2018-06-04T03:18:41.343Z,57.73
2018-06-04T03:19:41.329Z,57.24
2018-06-04T03:20:41.324Z,57.73
2018-06-04T03:21:41.319Z,57.73
2018-06-04T03:22:41.312Z,57.82
2018-06-04T03:23:41.312Z,57.73
2018-06-04T03:24:41.306Z,57.92
2018-06-04T03:25:41.298Z,57.54
2018-06-04T03:26:41.294Z,57.44
2018-06-04T03:27:41.291Z,57.73
2018-06-04T03:28:41.283Z,57.82
2018-06-04T03:29:41.278Z,57.73
2018-06-04T03:30:41.274Z,57.73
2018-06-04T03:31:41.280Z,57.73
2018-06-04T03:32:41.264Z,57.63
2018-06-04T03:33:41.259Z,57.73
2018-06-04T03:34:41.253Z,57.92
2018-06-04T03:35:41.248Z,57.73
2018-06-04T03:36:41.246Z,57.63
2018-06-04T03:37:41.238Z,57.44
2018-06-04T03:38:41.262Z,57.34
2018-06-04T03:39:41.230Z,57.54
2018-06-04T03:40:41.226Z,57.63
2018-06-04T03:41:41.221Z,57.54
2018-06-04T03:42:41.214Z,58.02
2018-06-04T03:43:41.210Z,57.73
2018-06-04T03:44:41.205Z,58.21
2018-06-04T03:45:41.199Z,57.92
2018-06-04T03:46:41.195Z,57.92
2018-06-04T03:47:41.194Z,57.82
2018-06-04T03:48:41.185Z,58.12
2018-06-04T03:49:41.178Z,57.92
2018-06-04T03:50:41.174Z,58.40
2018-06-04T03:51:41.167Z,58.12
2018-06-04T03:52:41.174Z,57.82
2018-06-04T03:53:41.162Z,58.31
2018-06-04T03:54:41.151Z,57.82
2018-06-04T03:55:41.147Z,58.31
2018-06-04T03:56:41.141Z,58.40
2018-06-04T03:57:41.135Z,57.82
2018-06-04T03:58:41.130Z,57.73
2018-06-04T03:59:41.124Z,58.14
2018-06-04T04:00:41.148Z,57.82
2018-06-04T04:01:41.113Z,58.02
2018-06-04T04:02:41.107Z,57.82
2018-06-04T04:03:41.100Z,57.66
2018-06-04T04:04:41.095Z,57.86
2018-06-04T04:05:41.089Z,57.76
2018-06-04T04:06:41.082Z,57.37
2018-06-04T04:07:41.076Z,57.46
2018-06-04T04:08:41.072Z,57.66
2018-06-04T04:09:41.065Z,57.66
2018-06-04T04:10:41.062Z,57.76
2018-06-04T04:11:41.054Z,57.28
2018-06-04T04:12:41.047Z,57.46
2018-06-04T04:13:41.044Z,57.37
2018-06-04T04:14:41.032Z,56.98
2018-06-04T04:15:41.026Z,56.88
2018-06-04T04:16:41.027Z,56.70
2018-06-04T04:17:41.024Z,56.79
2018-06-04T04:18:41.009Z,56.79
2018-06-04T04:19:41.003Z,56.79
2018-06-04T04:20:40.997Z,56.98
2018-06-04T04:21:40.993Z,56.98
2018-06-04T04:22:40.985Z,56.98
2018-06-04T04:23:40.979Z,56.98
2018-06-04T04:24:40.973Z,57.18
2018-06-04T04:25:40.967Z,57.18
2018-06-04T04:26:40.959Z,57.08
2018-06-04T04:27:40.992Z,57.18
2018-06-04T04:28:40.953Z,57.08
2018-06-04T04:29:40.944Z,56.98
2018-06-04T04:30:40.935Z,56.98
2018-06-04T04:31:40.929Z,56.88
2018-06-04T04:32:40.925Z,57.28
2018-06-04T04:33:40.939Z,57.18
2018-06-04T04:34:40.909Z,57.37
2018-06-04T04:35:40.904Z,57.18
2018-06-04T04:36:40.898Z,57.18
2018-06-04T04:37:40.892Z,57.08
2018-06-04T04:38:40.885Z,57.18
2018-06-04T04:39:40.880Z,57.37
2018-06-04T04:40:40.873Z,57.46
2018-06-04T04:41:40.865Z,57.46
2018-06-04T04:42:40.861Z,56.98
2018-06-04T04:43:40.853Z,57.18
2018-06-04T04:44:40.848Z,57.08
2018-06-04T04:45:40.840Z,57.37
2018-06-04T04:46:40.842Z,57.37
2018-06-04T04:47:40.828Z,56.98
2018-06-04T04:48:40.823Z,57.37
2018-06-04T04:49:40.814Z,56.88
2018-06-04T04:50:40.810Z,56.88
2018-06-04T04:51:40.804Z,56.88
2018-06-04T04:52:40.797Z,56.79
2018-06-04T04:53:40.791Z,56.88
2018-06-04T04:54:40.784Z,57.08
2018-06-04T04:55:40.778Z,56.98
2018-06-04T04:56:40.773Z,57.08
2018-06-04T04:57:40.764Z,56.98
2018-06-04T04:58:40.766Z,57.11
2018-06-04T04:59:40.803Z,56.98
2018-06-04T05:00:40.751Z,56.98
2018-06-04T05:01:40.754Z,56.98
2018-06-04T05:02:40.732Z,57.28
2018-06-04T05:03:40.727Z,57.08
2018-06-04T05:04:40.722Z,56.92
2018-06-04T05:05:40.714Z,57.01
2018-06-04T05:06:40.709Z,57.11
2018-06-04T05:07:40.705Z,56.92
2018-06-04T05:08:40.751Z,57.01
2018-06-04T05:09:40.691Z,56.82
2018-06-04T05:10:40.683Z,57.01
2018-06-04T05:11:40.678Z,56.82
2018-06-04T05:12:40.669Z,56.82
2018-06-04T05:13:40.663Z,57.11
2018-06-04T05:14:40.658Z,56.92
2018-06-04T05:15:40.652Z,57.01
2018-06-04T05:16:40.653Z,57.11
2018-06-04T05:17:40.639Z,57.01
2018-06-04T05:18:40.632Z,57.01
2018-06-04T05:19:40.627Z,56.92
2018-06-04T05:20:40.620Z,57.11
2018-06-04T05:21:40.613Z,57.11
2018-06-04T05:22:40.607Z,57.01
2018-06-04T05:23:40.610Z,57.01
2018-06-04T05:24:40.597Z,57.11
2018-06-04T05:25:40.594Z,57.11
2018-06-04T05:26:40.583Z,56.92
2018-06-04T05:27:40.578Z,56.92
2018-06-04T05:28:40.572Z,57.11
2018-06-04T05:29:40.564Z,57.11
2018-06-04T05:30:40.557Z,56.92
2018-06-04T05:31:40.553Z,57.01
2018-06-04T05:32:40.549Z,57.01
2018-06-04T05:33:40.537Z,56.92
2018-06-04T05:34:40.533Z,57.01
2018-06-04T05:35:40.526Z,57.01
2018-06-04T05:36:40.520Z,56.92
2018-06-04T05:37:40.513Z,56.92
2018-06-04T05:38:40.507Z,57.01
2018-06-04T05:39:40.503Z,57.11
2018-06-04T05:40:40.495Z,57.20
2018-06-04T05:41:40.492Z,57.30
2018-06-04T05:42:40.483Z,56.62
2018-06-04T05:43:40.489Z,56.62
2018-06-04T05:44:40.471Z,57.11
2018-06-04T05:45:40.464Z,57.11
2018-06-04T05:46:40.457Z,57.11
2018-06-04T05:47:40.452Z,56.92
2018-06-04T05:48:40.445Z,56.52
2018-06-04T05:49:40.439Z,56.62
2018-06-04T05:50:40.434Z,56.82
2018-06-04T05:51:40.428Z,56.72
2018-06-04T05:52:40.427Z,56.92
2018-06-04T05:53:40.413Z,56.92
2018-06-04T05:54:40.408Z,56.92
2018-06-04T05:55:40.404Z,56.56
2018-06-04T05:56:40.396Z,56.75
2018-06-04T05:57:40.391Z,56.82
2018-06-04T05:58:40.384Z,56.94
2018-06-04T05:59:40.378Z,56.72
2018-06-04T06:00:40.371Z,56.56
2018-06-04T06:01:40.375Z,56.65
2018-06-04T06:02:40.358Z,56.62
2018-06-04T06:03:40.357Z,56.46
2018-06-04T06:04:40.347Z,56.65
2018-06-04T06:05:40.342Z,56.65
2018-06-04T06:06:40.335Z,56.65
2018-06-04T06:07:40.329Z,56.46
2018-06-04T06:08:40.329Z,56.56
2018-06-04T06:09:40.316Z,56.46
2018-06-04T06:10:40.311Z,56.46
2018-06-04T06:11:40.305Z,56.65
2018-06-04T06:12:40.297Z,56.56
2018-06-04T06:13:40.291Z,56.65
2018-06-04T06:14:40.287Z,56.65
2018-06-04T06:15:40.279Z,56.75
2018-06-04T06:16:40.270Z,56.75
2018-06-04T06:17:40.271Z,56.65
2018-06-04T06:18:40.279Z,56.65
2018-06-04T06:19:40.255Z,57.04
2018-06-04T06:20:40.250Z,56.65
2018-06-04T06:21:40.242Z,56.94
2018-06-04T06:22:40.237Z,56.85
2018-06-04T06:23:40.230Z,56.94
2018-06-04T06:24:40.224Z,56.65
2018-06-04T06:25:40.219Z,56.75
2018-06-04T06:26:40.225Z,56.65
2018-06-04T06:27:40.206Z,56.75
2018-06-04T06:28:40.204Z,56.85
2018-06-04T06:29:40.187Z,56.56
2018-06-04T06:30:40.190Z,57.04
2018-06-04T06:31:40.184Z,56.94
2018-06-04T06:32:40.177Z,56.56
2018-06-04T06:33:40.170Z,57.04
2018-06-04T06:34:40.166Z,56.75
2018-06-04T06:35:40.158Z,57.04
2018-06-04T06:36:40.152Z,56.75
2018-06-04T06:37:40.178Z,56.56
2018-06-04T06:38:40.142Z,56.75
2018-06-04T06:39:40.139Z,56.65
2018-06-04T06:40:40.129Z,56.75
2018-06-04T06:41:40.124Z,56.65
2018-06-04T06:42:40.118Z,56.65
2018-06-04T06:43:40.112Z,56.94
2018-06-04T06:44:40.105Z,56.65
2018-06-04T06:45:40.099Z,56.65
2018-06-04T06:46:40.092Z,56.65
2018-06-04T06:47:40.088Z,56.65
2018-06-04T06:48:40.081Z,56.65
2018-06-04T06:49:40.074Z,56.65
2018-06-04T06:50:40.069Z,56.65
2018-06-04T06:51:40.063Z,56.75
2018-06-04T06:52:40.059Z,56.56
2018-06-04T06:53:40.052Z,56.75
2018-06-04T06:54:40.047Z,56.75
2018-06-04T06:55:40.041Z,56.56
2018-06-04T06:56:40.040Z,56.65
2018-06-04T06:57:40.029Z,56.68
2018-06-04T06:58:40.024Z,56.56
2018-06-04T06:59:40.024Z,56.68
2018-06-04T07:00:40.016Z,56.68
2018-06-04T07:01:40.005Z,56.59
2018-06-04T07:02:39.999Z,56.49
2018-06-04T07:03:39.991Z,56.59
2018-06-04T07:04:39.988Z,56.77
2018-06-04T07:05:39.981Z,56.59
2018-06-04T07:06:39.976Z,56.59
2018-06-04T07:07:40.038Z,56.59
2018-06-04T07:08:39.965Z,56.49
2018-06-04T07:09:39.961Z,56.49
2018-06-04T07:10:39.951Z,56.20
2018-06-04T07:11:39.947Z,56.29
2018-06-04T07:12:39.941Z,56.39
2018-06-04T07:13:39.935Z,56.49
2018-06-04T07:14:39.929Z,56.39
2018-06-04T07:15:39.927Z,56.49
2018-06-04T07:16:39.919Z,56.59
2018-06-04T07:17:39.911Z,56.39
2018-06-04T07:18:39.906Z,56.32
2018-06-04T07:19:39.901Z,56.49
2018-06-04T07:20:39.898Z,56.49
2018-06-04T07:21:39.889Z,56.13
2018-06-04T07:22:39.888Z,56.13
2018-06-04T07:23:39.877Z,56.23
2018-06-04T07:24:39.872Z,55.74
2018-06-04T07:25:39.871Z,55.93
2018-06-04T07:26:39.873Z,56.03
2018-06-04T07:27:39.855Z,55.90
2018-06-04T07:28:39.848Z,56.03
2018-06-04T07:29:39.841Z,55.74
2018-06-04T07:30:39.838Z,55.93
2018-06-04T07:31:39.836Z,55.93
2018-06-04T07:32:39.827Z,55.93
2018-06-04T07:33:39.828Z,55.74
2018-06-04T07:34:39.818Z,55.93
2018-06-04T07:35:39.809Z,55.54
2018-06-04T07:36:39.805Z,55.93
2018-06-04T07:37:39.798Z,55.64
2018-06-04T07:38:39.792Z,55.83
2018-06-04T07:39:39.788Z,55.64
2018-06-04T07:40:39.782Z,55.83
2018-06-04T07:41:39.776Z,56.03
2018-06-04T07:42:39.771Z,55.93
2018-06-04T07:43:39.769Z,55.93
2018-06-04T07:44:39.758Z,55.83
2018-06-04T07:45:39.752Z,55.93
2018-06-04T07:46:39.748Z,55.54
2018-06-04T07:47:39.742Z,55.47
2018-06-04T07:48:39.737Z,55.57
2018-06-04T07:49:39.737Z,55.28
2018-06-04T07:50:39.727Z,55.47
2018-06-04T07:51:39.715Z,55.47
2018-06-04T07:52:39.714Z,55.77
2018-06-04T07:53:39.707Z,55.67
2018-06-04T07:54:39.704Z,55.47
2018-06-04T07:55:39.698Z,55.28
2018-06-04T07:56:39.695Z,55.38
2018-06-04T07:57:39.687Z,55.47
2018-06-04T07:58:39.682Z,55.67
2018-06-04T07:59:39.677Z,55.08
2018-06-04T08:00:39.675Z,55.67
2018-06-04T08:01:39.667Z,55.18
2018-06-04T08:02:39.665Z,55.47
2018-06-04T08:03:39.655Z,55.50
2018-06-04T08:04:39.650Z,54.90
2018-06-04T08:05:39.644Z,54.90
2018-06-04T08:06:39.650Z,54.90
2018-06-04T08:07:39.636Z,55.18
2018-06-04T08:08:39.629Z,54.72
2018-06-04T08:09:39.621Z,55.21
2018-06-04T08:10:39.617Z,55.21
2018-06-04T08:11:39.613Z,55.31
2018-06-04T08:12:39.607Z,55.11
2018-06-04T08:13:39.601Z,54.63
2018-06-04T08:14:39.596Z,54.72
2018-06-04T08:15:39.592Z,55.11
2018-06-04T08:16:39.590Z,54.92
2018-06-04T08:17:39.580Z,55.21
2018-06-04T08:18:39.575Z,55.21
2018-06-04T08:19:39.572Z,55.02
2018-06-04T08:20:39.564Z,55.02
2018-06-04T08:21:39.559Z,55.21
2018-06-04T08:22:39.555Z,55.21
2018-06-04T08:23:39.548Z,54.72
2018-06-04T08:24:39.545Z,54.53
2018-06-04T08:25:39.538Z,54.82
2018-06-04T08:26:39.532Z,54.85
2018-06-04T08:27:39.527Z,54.82
2018-06-04T08:28:39.523Z,54.46
2018-06-04T08:29:39.518Z,54.53
2018-06-04T08:30:39.512Z,54.46
2018-06-04T08:31:39.508Z,54.56
2018-06-04T08:32:39.501Z,54.56
2018-06-04T08:33:39.498Z,54.56
2018-06-04T08:34:39.532Z,54.17
2018-06-04T08:35:39.490Z,54.56
2018-06-04T08:36:39.483Z,54.36
2018-06-04T08:37:39.488Z,54.27
2018-06-04T08:38:39.480Z,54.17
2018-06-04T08:39:39.468Z,54.36
2018-06-04T08:40:39.462Z,53.97
2018-06-04T08:41:39.459Z,54.36
2018-06-04T08:42:39.451Z,54.46
2018-06-04T08:43:39.447Z,54.27
2018-06-04T08:44:39.443Z,54.17
2018-06-04T08:45:39.480Z,54.07
2018-06-04T08:46:39.432Z,54.07
2018-06-04T08:47:39.427Z,53.97
2018-06-04T08:48:39.423Z,53.69
2018-06-04T08:49:39.416Z,53.81
2018-06-04T08:50:39.415Z,53.97
2018-06-04T08:51:39.406Z,53.78
2018-06-04T08:52:39.403Z,53.91
2018-06-04T08:53:39.397Z,54.00
2018-06-04T08:54:39.391Z,54.00
2018-06-04T08:55:39.386Z,53.91
2018-06-04T08:56:39.383Z,53.61
2018-06-04T08:57:39.379Z,53.52
2018-06-04T08:58:39.372Z,53.42
2018-06-04T08:59:39.372Z,53.22
2018-06-04T09:00:39.367Z,53.32
2018-06-04T09:01:39.358Z,53.22
2018-06-04T09:02:39.353Z,53.22
2018-06-04T09:03:39.348Z,53.13
2018-06-04T09:04:39.344Z,53.42
2018-06-04T09:05:39.337Z,53.42
2018-06-04T09:06:39.333Z,53.22
2018-06-04T09:07:39.328Z,53.74
2018-06-04T09:08:39.330Z,53.54
2018-06-04T09:09:39.319Z,53.13
2018-06-04T09:10:39.314Z,53.06
2018-06-04T09:11:39.309Z,52.86
2018-06-04T09:12:39.304Z,52.96
2018-06-04T09:13:39.301Z,53.25
2018-06-04T09:14:39.295Z,53.06
2018-06-04T09:15:39.323Z,52.96
2018-06-04T09:16:39.287Z,53.06
2018-06-04T09:17:39.280Z,52.47
2018-06-04T09:18:39.276Z,52.86
2018-06-04T09:19:39.271Z,52.67
2018-06-04T09:20:39.267Z,52.47
2018-06-04T09:21:39.287Z,52.47
2018-06-04T09:22:39.256Z,52.37
2018-06-04T09:23:39.252Z,52.57
2018-06-04T09:24:39.249Z,52.57
2018-06-04T09:25:39.244Z,52.86
2018-06-04T09:26:39.243Z,52.69
2018-06-04T09:27:39.234Z,52.89
2018-06-04T09:28:39.230Z,52.89
2018-06-04T09:29:39.226Z,52.59
2018-06-04T09:30:39.220Z,52.50
2018-06-04T09:31:39.216Z,52.40
2018-06-04T09:32:39.212Z,52.50
2018-06-04T09:33:39.227Z,52.59
2018-06-04T09:34:39.202Z,52.59
2018-06-04T09:35:39.198Z,52.11
2018-06-04T09:36:39.194Z,51.92
2018-06-04T09:37:39.224Z,52.21
2018-06-04T09:38:39.183Z,51.72
2018-06-04T09:39:39.182Z,51.92
2018-06-04T09:40:39.175Z,51.92
2018-06-04T09:41:39.170Z,52.01
2018-06-04T09:42:39.170Z,52.01
2018-06-04T09:43:39.161Z,52.21
2018-06-04T09:44:39.157Z,51.84
2018-06-04T09:45:39.151Z,51.75
2018-06-04T09:46:39.147Z,52.14
2018-06-04T09:47:39.143Z,51.84
2018-06-04T09:48:39.140Z,51.94
2018-06-04T09:49:39.134Z,51.45
2018-06-04T09:50:39.128Z,51.65
2018-06-04T09:51:39.126Z,51.65
2018-06-04T09:52:39.123Z,51.75
2018-06-04T09:53:39.118Z,51.75
2018-06-04T09:54:39.116Z,51.45
2018-06-04T09:55:39.108Z,51.36
2018-06-04T09:56:39.103Z,52.23
2018-06-04T09:57:39.099Z,51.75
2018-06-04T09:58:39.095Z,51.45
2018-06-04T09:59:39.091Z,51.26
2018-06-04T10:00:39.091Z,51.55
2018-06-04T10:01:39.083Z,51.26
2018-06-04T10:02:39.085Z,51.36
2018-06-04T10:03:39.074Z,51.07
2018-06-04T10:04:39.072Z,51.07
2018-06-04T10:05:39.063Z,51.07
2018-06-04T10:06:39.061Z,51.07
2018-06-04T10:07:39.057Z,51.17
2018-06-04T10:08:39.055Z,51.07
2018-06-04T10:09:39.048Z,50.97
2018-06-04T10:10:39.044Z,50.99
2018-06-04T10:11:39.037Z,51.19
2018-06-04T10:12:39.033Z,51.19
2018-06-04T10:13:39.029Z,51.26
2018-06-04T10:14:39.024Z,51.29
2018-06-04T10:15:39.024Z,51.19
2018-06-04T10:16:39.020Z,50.87
2018-06-04T10:17:39.012Z,51.17
2018-06-04T10:18:39.008Z,50.80
2018-06-04T10:19:39.004Z,50.80
2018-06-04T10:20:39.004Z,50.80
2018-06-04T10:21:38.996Z,50.90
2018-06-04T10:22:38.991Z,50.90
2018-06-04T10:23:38.989Z,50.80
2018-06-04T10:24:38.982Z,50.90
2018-06-04T10:25:38.978Z,50.99
2018-06-04T10:26:38.975Z,50.70
2018-06-04T10:27:38.971Z,50.70
2018-06-04T10:28:38.967Z,50.70
2018-06-04T10:29:38.973Z,50.70
2018-06-04T10:30:38.957Z,50.70
2018-06-04T10:31:38.953Z,50.90
2018-06-04T10:32:38.950Z,50.90
2018-06-04T10:33:38.949Z,50.70
2018-06-04T10:34:38.941Z,50.90
2018-06-04T10:35:38.942Z,50.80
2018-06-04T10:36:38.949Z,51.19
2018-06-04T10:37:38.928Z,51.09
2018-06-04T10:38:38.925Z,51.09
2018-06-04T10:39:38.946Z,50.99
2018-06-04T10:40:38.916Z,51.09
2018-06-04T10:41:38.913Z,50.80
2018-06-04T10:42:38.908Z,50.99
2018-06-04T10:43:38.905Z,50.90
2018-06-04T10:44:38.900Z,50.80
2018-06-04T10:45:38.896Z,50.70
2018-06-04T10:46:38.960Z,50.70
2018-06-04T10:47:38.889Z,50.60
2018-06-04T10:48:38.884Z,50.60
2018-06-04T10:49:38.880Z,50.80
2018-06-04T10:50:38.875Z,50.51
2018-06-04T10:51:38.872Z,50.51
2018-06-04T10:52:38.867Z,50.21
2018-06-04T10:53:38.862Z,50.34
2018-06-04T10:54:38.859Z,50.31
2018-06-04T10:55:38.856Z,50.34
2018-06-04T10:56:38.850Z,50.43
2018-06-04T10:57:38.921Z,50.43
2018-06-04T10:58:38.843Z,50.21
2018-06-04T10:59:38.841Z,50.24
2018-06-04T11:00:38.835Z,50.34
2018-06-04T11:01:38.830Z,50.43
2018-06-04T11:02:38.827Z,50.34
2018-06-04T11:03:38.871Z,50.34
2018-06-04T11:04:38.818Z,50.24
2018-06-04T11:05:38.814Z,50.24
2018-06-04T11:06:38.809Z,50.34
2018-06-04T11:07:38.807Z,50.34
2018-06-04T11:08:38.802Z,50.34
2018-06-04T11:09:38.798Z,50.24
2018-06-04T11:10:38.795Z,50.24
2018-06-04T11:11:38.792Z,50.14
2018-06-04T11:12:38.789Z,50.24
2018-06-04T11:13:38.781Z,50.24
2018-06-04T11:14:38.778Z,50.53
2018-06-04T11:15:38.774Z,50.14
2018-06-04T11:16:38.770Z,50.34
2018-06-04T11:17:38.768Z,50.34
2018-06-04T11:18:38.764Z,50.34
2018-06-04T11:19:38.759Z,50.43
2018-06-04T11:20:38.765Z,50.04
2018-06-04T11:21:38.751Z,50.41
2018-06-04T11:22:38.746Z,50.12
2018-06-04T11:23:38.743Z,50.90
2018-06-04T11:24:38.739Z,51.19
2018-06-04T11:25:38.772Z,50.80
2018-06-04T11:26:38.730Z,50.90
2018-06-04T11:27:38.726Z,50.80
2018-06-04T11:28:38.723Z,51.39
2018-06-04T11:29:38.720Z,51.26
2018-06-04T11:30:38.713Z,51.07
2018-06-04T11:31:38.710Z,51.07
2018-06-04T11:32:38.706Z,51.07
2018-06-04T11:33:38.738Z,51.36
2018-06-04T11:34:38.702Z,51.36
2018-06-04T11:35:38.694Z,51.65
2018-06-04T11:36:38.693Z,51.45
2018-06-04T11:37:38.686Z,51.55
2018-06-04T11:38:38.680Z,51.26
2018-06-04T11:39:38.678Z,51.36
2018-06-04T11:40:38.674Z,51.26
2018-06-04T11:41:38.882Z,51.48
2018-06-04T11:42:38.664Z,50.97
2018-06-04T11:43:38.661Z,50.90
2018-06-04T11:44:38.658Z,50.90
2018-06-04T11:45:38.659Z,51.26
2018-06-04T11:46:38.648Z,51.29
2018-06-04T11:47:38.644Z,51.29
2018-06-04T11:48:38.641Z,51.29
2018-06-04T11:49:38.636Z,51.09
2018-06-04T11:50:38.631Z,51.09
2018-06-04T11:51:38.628Z,51.19
2018-06-04T11:52:38.638Z,51.29
2018-06-04T11:53:38.619Z,51.19
2018-06-04T11:54:38.617Z,50.80
2018-06-04T11:55:38.615Z,51.19
2018-06-04T11:56:38.638Z,51.29
2018-06-04T11:57:38.603Z,51.19
2018-06-04T11:58:38.640Z,51.09
2018-06-04T11:59:38.594Z,51.39
2018-06-04T12:00:38.628Z,51.19
2018-06-04T12:01:38.602Z,51.39
2018-06-04T12:02:38.583Z,51.19
2018-06-04T12:03:38.577Z,51.29
2018-06-04T12:04:38.576Z,51.29
2018-06-04T12:05:38.570Z,51.29
2018-06-04T12:06:38.572Z,51.29
2018-06-04T12:07:38.562Z,51.29
2018-06-04T12:08:38.557Z,51.29
2018-06-04T12:09:38.553Z,51.29
2018-06-04T12:10:38.550Z,51.29
2018-06-04T12:11:38.604Z,50.99
2018-06-04T12:12:38.541Z,51.29
2018-06-04T12:13:38.538Z,51.09
2018-06-04T12:14:38.532Z,51.19
2018-06-04T12:15:38.530Z,51.19
2018-06-04T12:16:38.527Z,50.90
2018-06-04T12:17:38.521Z,51.29
2018-06-04T12:18:38.516Z,51.45
2018-06-04T12:19:38.513Z,51.29
2018-06-04T12:20:38.509Z,51.29
2018-06-04T12:21:38.504Z,51.45
2018-06-04T12:22:38.502Z,51.75
2018-06-04T12:23:38.498Z,51.84
2018-06-04T12:24:38.491Z,51.75
2018-06-04T12:25:38.493Z,51.55
2018-06-04T12:26:38.520Z,52.04
2018-06-04T12:27:38.480Z,51.45
2018-06-04T12:28:38.497Z,51.84
2018-06-04T12:29:38.471Z,51.84
2018-06-04T12:30:38.468Z,51.84
2018-06-04T12:31:38.466Z,51.84
2018-06-04T12:32:38.462Z,51.45
2018-06-04T12:33:38.453Z,51.75
2018-06-04T12:34:38.451Z,51.84
2018-06-04T12:35:38.447Z,51.45
2018-06-04T12:36:38.442Z,51.75
2018-06-04T12:37:38.438Z,51.84
2018-06-04T12:38:38.434Z,52.04
2018-06-04T12:39:38.429Z,51.94
2018-06-04T12:40:38.428Z,51.67
2018-06-04T12:41:38.421Z,51.87
2018-06-04T12:42:38.416Z,51.65
2018-06-04T12:43:38.415Z,51.75
2018-06-04T12:44:38.409Z,51.75
2018-06-04T12:45:38.404Z,51.77
2018-06-04T12:46:38.402Z,51.75
2018-06-04T12:47:38.397Z,51.55
2018-06-04T12:48:38.395Z,51.75
2018-06-04T12:49:38.389Z,51.58
2018-06-04T12:50:38.384Z,51.65
2018-06-04T12:51:38.381Z,51.55
2018-06-04T12:52:38.376Z,51.65